Time;durP1;ratioP1;P1;durP2;ratioP2;P2;SDS_P1;SDS_P2;PMS_P1;PMS_P2;Temp;Humidity;BMP_temperature;BMP_pressure;BME280_temperature;BME280_humidity;BME280_pressure;Samples;Min_cycle;Max_cycle;Signal;HPM_P1;HPM_P2
2024/03/30 00:02:16;;;;;;;13.25;6.88;;;;;;;;;;5015061;28;20112;-68
2024/03/30 00:04:41;;;;;;;10.82;5.55;;;;;;;;;;5016395;28;20018;-65
2024/03/30 00:07:07;;;;;;;9.27;5.40;;;;;;;;;;5029853;23;20149;-62
2024/03/30 00:09:32;;;;;;;8.30;4.45;;;;;;;;;;5014659;28;20022;-62
2024/03/30 00:11:57;;;;;;;9.85;5.25;;;;;;;;;;5014586;28;20500;-62
2024/03/30 00:14:23;;;;;;;13.35;6.35;;;;;;;;;;5014558;28;20474;-62
2024/03/30 00:16:48;;;;;;;7.68;4.88;;;;;;;;;;5014463;28;20482;-62
2024/03/30 00:19:15;;;;;;;9.68;4.10;;;;;;;;;;5013147;28;20075;-63
2024/03/30 00:21:40;;;;;;;10.55;4.88;;;;;;;;;;5014412;28;20030;-62
2024/03/30 00:24:06;;;;;;;8.23;3.70;;;;;;;;;;4996906;28;20040;-63
2024/03/30 00:26:31;;;;;;;7.07;3.53;;;;;;;;;;5014289;28;20068;-62
2024/03/30 00:28:56;;;;;;;6.32;3.60;;;;;;;;;;5014272;28;20474;-62
2024/03/30 00:31:25;;;;;;;4.97;3.15;;;;;;;;;;5014308;28;20446;-62
2024/03/30 00:33:50;;;;;;;9.95;3.28;;;;;;;;;;5014289;28;20049;-62
2024/03/30 00:36:15;;;;;;;7.70;3.60;;;;;;;;;;5014181;28;20025;-62
2024/03/30 00:38:45;;;;;;;7.95;4.15;;;;;;;;;;5014064;28;20541;-62
2024/03/30 00:41:10;;;;;;;9.75;5.65;;;;;;;;;;5014090;28;20030;-62
2024/03/30 00:43:36;;;;;;;11.32;6.30;;;;;;;;;;5014405;28;20049;-62
2024/03/30 00:46:01;;;;;;;8.93;4.75;;;;;;;;;;5013071;28;20087;-62
2024/03/30 00:48:26;;;;;;;17.15;7.88;;;;;;;;;;5012752;28;20382;-62
2024/03/30 00:50:52;;;;;;;6.03;3.58;;;;;;;;;;5014018;28;20481;-62
2024/03/30 00:53:17;;;;;;;7.07;3.60;;;;;;;;;;5013979;28;20488;-63
2024/03/30 00:55:43;;;;;;;5.30;3.10;;;;;;;;;;5013990;28;20037;-63
2024/03/30 00:58:08;;;;;;;7.30;3.28;;;;;;;;;;5013975;28;20030;-62
2024/03/30 01:00:33;;;;;;;5.88;3.10;;;;;;;;;;5013996;28;20105;-62
2024/03/30 01:02:59;;;;;;;14.57;6.28;;;;;;;;;;5013821;28;20028;-62
2024/03/30 01:05:24;;;;;;;8.00;3.92;;;;;;;;;;5013804;28;20026;-62
2024/03/30 01:07:50;;;;;;;7.65;4.40;;;;;;;;;;5013712;28;20121;-63
2024/03/30 01:10:15;;;;;;;8.48;4.00;;;;;;;;;;5013730;28;20485;-65
2024/03/30 01:12:41;;;;;;;7.60;3.20;;;;;;;;;;5013740;28;20032;-65
2024/03/30 01:15:07;;;;;;;6.20;3.38;;;;;;;;;;5013802;28;20496;-65
2024/03/30 01:17:37;;;;;;;8.73;3.38;;;;;;;;;;5013637;28;20439;-65
2024/03/30 01:20:06;;;;;;;6.50;3.70;;;;;;;;;;5013768;28;20030;-65
2024/03/30 01:22:34;;;;;;;6.80;3.75;;;;;;;;;;5013756;28;20420;-65
2024/03/30 01:25:00;;;;;;;7.30;3.95;;;;;;;;;;5012462;28;20026;-65
2024/03/30 01:27:26;;;;;;;7.72;3.78;;;;;;;;;;5013633;28;20033;-65
2024/03/30 01:29:52;;;;;;;9.85;3.60;;;;;;;;;;5013598;28;20053;-65
2024/03/30 01:32:18;;;;;;;6.18;3.80;;;;;;;;;;5013840;28;20032;-65
2024/03/30 01:34:43;;;;;;;7.85;3.53;;;;;;;;;;5013609;28;20120;-65
2024/03/30 01:37:09;;;;;;;8.90;3.58;;;;;;;;;;5012210;28;20073;-65
2024/03/30 01:39:35;;;;;;;10.95;4.13;;;;;;;;;;5013579;28;20104;-65
2024/03/30 01:42:00;;;;;;;9.63;3.83;;;;;;;;;;5013700;28;20034;-65
2024/03/30 01:44:27;;;;;;;5.18;3.97;;;;;;;;;;5013503;28;20094;-65
2024/03/30 01:46:52;;;;;;;9.50;5.85;;;;;;;;;;5012208;28;20067;-65
2024/03/30 01:49:18;;;;;;;12.02;7.20;;;;;;;;;;5013412;28;20381;-65
2024/03/30 01:51:44;;;;;;;7.78;5.22;;;;;;;;;;5013525;28;20010;-65
2024/03/30 01:54:11;;;;;;;11.00;4.97;;;;;;;;;;5013349;28;20030;-65
2024/03/30 01:56:37;;;;;;;6.72;3.95;;;;;;;;;;5012088;28;20549;-65
2024/03/30 01:59:03;;;;;;;9.02;3.97;;;;;;;;;;5013257;28;20125;-65
2024/03/30 02:01:29;;;;;;;7.10;4.03;;;;;;;;;;5013577;28;20034;-65
2024/03/30 02:03:55;;;;;;;10.00;5.47;;;;;;;;;;5012024;28;20203;-65
2024/03/30 02:06:21;;;;;;;10.85;5.55;;;;;;;;;;5013215;28;20038;-63
2024/03/30 02:08:48;;;;;;;12.98;6.30;;;;;;;;;;5013352;23;20050;-63
2024/03/30 02:11:14;;;;;;;10.75;5.80;;;;;;;;;;4956954;28;20391;-65
2024/03/30 02:13:39;;;;;;;12.55;5.65;;;;;;;;;;4974140;28;20031;-65
2024/03/30 02:16:05;;;;;;;12.18;5.88;;;;;;;;;;4976539;28;20030;-65
2024/03/30 02:18:30;;;;;;;9.98;4.85;;;;;;;;;;4977791;28;20035;-63
2024/03/30 02:20:56;;;;;;;6.47;4.10;;;;;;;;;;4960512;28;20023;-63
2024/03/30 02:23:21;;;;;;;11.43;4.63;;;;;;;;;;4977525;28;20051;-62
2024/03/30 02:25:46;;;;;;;10.77;4.90;;;;;;;;;;4960059;28;20043;-62
2024/03/30 02:28:15;;;;;;;10.60;5.40;;;;;;;;;;4977613;28;20035;-62
2024/03/30 02:30:41;;;;;;;13.73;5.50;;;;;;;;;;4977490;28;20392;-62
2024/03/30 02:33:08;;;;;;;9.77;4.97;;;;;;;;;;4977358;28;20065;-62
2024/03/30 02:35:33;;;;;;;9.43;4.63;;;;;;;;;;4960155;28;20471;-63
2024/03/30 02:37:58;;;;;;;10.43;5.53;;;;;;;;;;4977205;28;20029;-62
2024/03/30 02:40:26;;;;;;;9.73;4.93;;;;;;;;;;4977199;28;20391;-62
2024/03/30 02:42:51;;;;;;;10.82;4.82;;;;;;;;;;4977223;28;20475;-62
2024/03/30 02:45:17;;;;;;;12.32;4.72;;;;;;;;;;4977195;28;20030;-62
2024/03/30 02:47:43;;;;;;;11.05;4.78;;;;;;;;;;4960027;28;20116;-62
2024/03/30 02:50:08;;;;;;;13.13;5.03;;;;;;;;;;4977107;28;20105;-63
2024/03/30 02:52:33;;;;;;;9.40;4.78;;;;;;;;;;4959818;28;20030;-62
2024/03/30 02:54:59;;;;;;;8.32;4.22;;;;;;;;;;4959647;28;20093;-62
2024/03/30 02:57:24;;;;;;;9.57;4.07;;;;;;;;;;4976840;28;20031;-62
2024/03/30 02:59:49;;;;;;;8.63;3.15;;;;;;;;;;4976872;28;20487;-62
2024/03/30 03:02:15;;;;;;;10.95;4.00;;;;;;;;;;4976901;28;20482;-62
2024/03/30 03:04:40;;;;;;;9.10;3.65;;;;;;;;;;4976776;28;20034;-62
2024/03/30 03:07:06;;;;;;;9.52;3.47;;;;;;;;;;4976788;28;20027;-62
2024/03/30 03:09:32;;;;;;;7.50;3.33;;;;;;;;;;4976637;28;20541;-62
2024/03/30 03:11:57;;;;;;;7.63;4.05;;;;;;;;;;4976656;28;20027;-62
2024/03/30 03:14:23;;;;;;;9.35;4.13;;;;;;;;;;4976652;28;20061;-62
2024/03/30 03:16:48;;;;;;;7.32;4.38;;;;;;;;;;4976551;28;20113;-62
2024/03/30 03:19:13;;;;;;;11.15;4.43;;;;;;;;;;4976536;28;20498;-62
2024/03/30 03:21:39;;;;;;;12.02;4.85;;;;;;;;;;4976716;28;20054;-62
2024/03/30 03:24:04;;;;;;;7.53;3.83;;;;;;;;;;4959544;28;20125;-63
2024/03/30 03:26:30;;;;;;;12.50;4.53;;;;;;;;;;5029530;23;20061;-62
2024/03/30 03:28:55;;;;;;;8.98;4.55;;;;;;;;;;5015298;28;20057;-61
2024/03/30 03:31:20;;;;;;;9.95;4.28;;;;;;;;;;5015409;28;20030;-61
2024/03/30 03:33:46;;;;;;;7.95;3.90;;;;;;;;;;5015328;28;20050;-61
2024/03/30 03:36:11;;;;;;;8.48;4.07;;;;;;;;;;5015348;28;20117;-62
2024/03/30 03:38:36;;;;;;;9.85;4.13;;;;;;;;;;5015112;28;20021;-61
2024/03/30 03:41:02;;;;;;;7.90;4.50;;;;;;;;;;5014016;28;20026;-61
2024/03/30 03:43:27;;;;;;;8.85;4.28;;;;;;;;;;5015149;28;20045;-62
2024/03/30 03:45:57;;;;;;;8.00;4.32;;;;;;;;;;5015024;28;20018;-61
2024/03/30 03:48:22;;;;;;;7.88;4.40;;;;;;;;;;5015040;28;20065;-62
2024/03/30 03:50:48;;;;;;;9.25;4.05;;;;;;;;;;5013731;28;20422;-62
2024/03/30 03:53:13;;;;;;;13.93;4.88;;;;;;;;;;4997400;28;20041;-62
2024/03/30 03:55:39;;;;;;;13.45;4.43;;;;;;;;;;5015043;28;20045;-62
2024/03/30 03:58:04;;;;;;;9.93;3.95;;;;;;;;;;5014720;28;20433;-61
2024/03/30 04:00:30;;;;;;;7.65;4.15;;;;;;;;;;5014758;28;20363;-62
2024/03/30 04:02:55;;;;;;;8.63;4.10;;;;;;;;;;5014760;28;20462;-61
2024/03/30 04:05:21;;;;;;;9.60;3.90;;;;;;;;;;5014732;28;20081;-61
2024/03/30 04:07:46;;;;;;;6.90;3.70;;;;;;;;;;5013675;28;20026;-61
2024/03/30 04:10:14;;;;;;;7.95;4.28;;;;;;;;;;5013261;28;20037;-61
2024/03/30 04:12:40;;;;;;;10.88;4.25;;;;;;;;;;5014578;28;20033;-61
2024/03/30 04:15:06;;;;;;;7.35;3.78;;;;;;;;;;5014652;28;20084;-62
2024/03/30 04:17:34;;;;;;;5.97;3.90;;;;;;;;;;5014553;28;20112;-61
2024/03/30 04:19:59;;;;;;;9.52;4.15;;;;;;;;;;5013382;28;20021;-62
2024/03/30 04:22:25;;;;;;;8.98;3.42;;;;;;;;;;5014696;28;20029;-61
2024/03/30 04:24:50;;;;;;;9.07;3.95;;;;;;;;;;5014800;28;20026;-61
2024/03/30 04:27:16;;;;;;;7.47;3.30;;;;;;;;;;5014330;28;20045;-62
2024/03/30 04:29:41;;;;;;;7.63;3.78;;;;;;;;;;5014290;28;20040;-61
2024/03/30 04:32:06;;;;;;;19.05;8.38;;;;;;;;;;5014285;28;20038;-62
2024/03/30 04:34:32;;;;;;;9.90;3.60;;;;;;;;;;5014331;28;20034;-64
2024/03/30 04:36:58;;;;;;;7.20;3.20;;;;;;;;;;5014605;28;20013;-66
2024/03/30 04:39:23;;;;;;;7.18;3.47;;;;;;;;;;5012672;28;20121;-64
2024/03/30 04:41:49;;;;;;;6.53;3.53;;;;;;;;;;5012907;28;20030;-64
2024/03/30 04:44:14;;;;;;;8.68;3.45;;;;;;;;;;5012925;28;20473;-64
2024/03/30 04:46:39;;;;;;;9.63;3.78;;;;;;;;;;5014114;28;20434;-64
2024/03/30 04:49:05;;;;;;;5.80;3.20;;;;;;;;;;5045751;28;20046;-64
2024/03/30 04:51:30;;;;;;;7.15;3.80;;;;;;;;;;5013980;28;20026;-64
2024/03/30 04:53:56;;;;;;;8.60;4.03;;;;;;;;;;5012796;28;20454;-64
2024/03/30 04:56:21;;;;;;;10.95;6.72;;;;;;;;;;5013910;28;20026;-64
2024/03/30 04:58:47;;;;;;;11.10;5.15;;;;;;;;;;5013861;28;20460;-64
2024/03/30 05:01:12;;;;;;;43.78;25.80;;;;;;;;;;5013884;28;20061;-64
2024/03/30 05:03:37;;;;;;;312.40;162.50;;;;;;;;;;5013952;28;20026;-64
2024/03/30 05:06:03;;;;;;;19.33;10.35;;;;;;;;;;5013934;28;20037;-64
2024/03/30 05:08:29;;;;;;;15.13;6.35;;;;;;;;;;5012553;28;20030;-64
2024/03/30 05:10:54;;;;;;;14.68;7.07;;;;;;;;;;5012755;28;20498;-64
2024/03/30 05:13:20;;;;;;;14.07;7.43;;;;;;;;;;5013727;28;20085;-64
2024/03/30 05:15:46;;;;;;;17.60;7.25;;;;;;;;;;5013879;28;20037;-64
2024/03/30 05:18:12;;;;;;;14.70;6.90;;;;;;;;;;5013652;28;20022;-64
2024/03/30 05:20:49;;;;;;;18.05;6.75;;;;;;;;;;5012549;28;20045;-65
2024/03/30 05:23:45;;;;;;;16.42;6.90;;;;;;;;;;5013635;28;20478;-64
2024/03/30 05:26:10;;;;;;;19.17;7.15;;;;;;;;;;4995995;28;20038;-65
2024/03/30 05:28:36;;;;;;;18.77;6.75;;;;;;;;;;5013550;28;20492;-64
2024/03/30 05:31:03;;;;;;;16.67;6.88;;;;;;;;;;5013539;28;20053;-64
2024/03/30 05:33:29;;;;;;;15.23;6.50;;;;;;;;;;5013538;28;20037;-65
2024/03/30 05:35:55;;;;;;;16.25;6.72;;;;;;;;;;5012343;28;20038;-65
2024/03/30 05:40:54;;;;;;;14.73;5.90;;;;;;;;;;5045993;23;20061;-62
2024/03/30 05:43:19;;;;;;;16.70;7.15;;;;;;;;;;5013497;28;20382;-62
2024/03/30 05:45:48;;;;;;;44.83;23.75;;;;;;;;;;5012643;28;20101;-61
2024/03/30 05:48:14;;;;;;;37.10;21.65;;;;;;;;;;5013711;28;20078;-62
2024/03/30 05:50:39;;;;;;;12.73;7.45;;;;;;;;;;5015578;28;20057;-62
2024/03/30 05:53:05;;;;;;;17.88;9.02;;;;;;;;;;4999608;28;20041;-62
2024/03/30 05:55:30;;;;;;;11.80;4.47;;;;;;;;;;4999946;28;20473;-62
2024/03/30 05:57:58;;;;;;;17.80;9.40;;;;;;;;;;4998877;28;20547;-62
2024/03/30 06:00:25;;;;;;;15.15;7.75;;;;;;;;;;5017031;28;20036;-62
2024/03/30 06:02:50;;;;;;;37.40;23.83;;;;;;;;;;5017320;28;20034;-62
2024/03/30 06:05:16;;;;;;;26.52;15.75;;;;;;;;;;5016990;28;20109;-62
2024/03/30 06:07:41;;;;;;;14.25;4.70;;;;;;;;;;5015669;28;20032;-62
2024/03/30 06:10:08;;;;;;;11.98;3.55;;;;;;;;;;5016862;28;20363;-62
2024/03/30 06:12:33;;;;;;;20.13;9.50;;;;;;;;;;5017085;28;20084;-62
2024/03/30 06:14:59;;;;;;;31.55;19.48;;;;;;;;;;5017091;28;20038;-62
2024/03/30 06:17:24;;;;;;;12.77;4.95;;;;;;;;;;5016695;28;20033;-62
2024/03/30 06:19:49;;;;;;;13.75;6.78;;;;;;;;;;5017002;28;20458;-62
2024/03/30 06:22:15;;;;;;;15.75;6.75;;;;;;;;;;5017186;28;20066;-62
2024/03/30 06:24:40;;;;;;;23.67;10.88;;;;;;;;;;5016650;28;20026;-62
2024/03/30 06:27:08;;;;;;;21.75;11.48;;;;;;;;;;5017174;28;20036;-62
2024/03/30 06:29:34;;;;;;;12.40;3.85;;;;;;;;;;5016816;28;20030;-62
2024/03/30 06:32:00;;;;;;;12.65;5.18;;;;;;;;;;5031832;28;20053;-62
2024/03/30 06:34:25;;;;;;;12.77;5.40;;;;;;;;;;5016741;28;20500;-62
2024/03/30 06:36:51;;;;;;;13.73;5.45;;;;;;;;;;5016860;28;20025;-62
2024/03/30 06:39:16;;;;;;;32.00;7.53;;;;;;;;;;5016657;28;20030;-62
2024/03/30 06:44:26;;;;;;;9.90;3.67;;;;;;;;;;5016774;28;20022;-62
2024/03/30 06:46:51;;;;;;;19.13;3.72;;;;;;;;;;5016503;28;20033;-62
2024/03/30 06:49:17;;;;;;;13.27;3.55;;;;;;;;;;4998565;28;20033;-62
2024/03/30 06:51:43;;;;;;;9.93;3.15;;;;;;;;;;5016121;28;20383;-62
2024/03/30 06:54:08;;;;;;;14.52;3.35;;;;;;;;;;5016119;28;20034;-62
2024/03/30 06:56:33;;;;;;;16.92;2.58;;;;;;;;;;5032574;23;20450;-69
2024/03/30 07:01:51;;;;;;;14.18;2.25;;;;;;;;;;4975180;28;20046;-62
2024/03/30 07:04:16;;;;;;;10.52;2.17;;;;;;;;;;4976909;28;20383;-62
2024/03/30 07:06:41;;;;;;;9.95;2.65;;;;;;;;;;4992004;28;20035;-62
2024/03/30 07:09:07;;;;;;;13.10;2.50;;;;;;;;;;5008042;28;20031;-61
2024/03/30 07:11:32;;;;;;;12.63;2.15;;;;;;;;;;4976768;28;20031;-61
2024/03/30 07:13:57;;;;;;;14.70;2.58;;;;;;;;;;5008140;28;20035;-62
2024/03/30 07:16:23;;;;;;;13.57;2.58;;;;;;;;;;5008069;28;20065;-61
2024/03/30 07:18:49;;;;;;;14.77;2.47;;;;;;;;;;5007858;28;20482;-62
2024/03/30 07:21:14;;;;;;;9.45;2.10;;;;;;;;;;4976650;28;20058;-61
2024/03/30 07:23:40;;;;;;;14.18;2.90;;;;;;;;;;4976909;28;20046;-62
2024/03/30 07:26:05;;;;;;;15.55;4.63;;;;;;;;;;4991578;28;20031;-61
2024/03/30 07:28:31;;;;;;;12.10;3.17;;;;;;;;;;4976445;28;20530;-62
2024/03/30 07:31:03;;;;;;;13.95;3.15;;;;;;;;;;4991346;28;20494;-62
2024/03/30 07:33:29;;;;;;;17.52;2.75;;;;;;;;;;4976419;28;20030;-62
2024/03/30 07:35:54;;;;;;;17.35;2.83;;;;;;;;;;5007529;28;20030;-62
2024/03/30 07:38:23;;;;;;;20.20;3.33;;;;;;;;;;4991134;28;20082;-62
2024/03/30 07:40:48;;;;;;;11.55;2.97;;;;;;;;;;4976192;28;20435;-62
2024/03/30 07:43:14;;;;;;;23.83;3.08;;;;;;;;;;4976029;28;20034;-62
2024/03/30 07:45:39;;;;;;;17.77;3.00;;;;;;;;;;4976117;28;20041;-62
2024/03/30 07:48:05;;;;;;;16.30;2.97;;;;;;;;;;5007319;28;20039;-61
2024/03/30 07:50:31;;;;;;;11.70;2.65;;;;;;;;;;4976288;28;20030;-62
2024/03/30 07:52:56;;;;;;;13.55;2.53;;;;;;;;;;4975954;28;20035;-62
2024/03/30 07:55:22;;;;;;;14.27;2.28;;;;;;;;;;4975858;28;20031;-62
2024/03/30 07:57:47;;;;;;;13.45;2.42;;;;;;;;;;4975783;28;20034;-62
2024/03/30 08:00:14;;;;;;;22.48;3.13;;;;;;;;;;4982058;28;20089;-62
2024/03/30 08:02:40;;;;;;;20.85;2.70;;;;;;;;;;4995285;28;20030;-62
2024/03/30 08:05:05;;;;;;;16.83;2.85;;;;;;;;;;5010269;28;20371;-62
2024/03/30 08:07:31;;;;;;;15.02;2.30;;;;;;;;;;4995226;28;20045;-62
2024/03/30 08:09:56;;;;;;;15.32;2.85;;;;;;;;;;4995225;28;20018;-62
2024/03/30 08:12:22;;;;;;;13.60;2.70;;;;;;;;;;4994486;28;20034;-62
2024/03/30 08:14:47;;;;;;;15.30;2.53;;;;;;;;;;4994818;28;20025;-62
2024/03/30 08:17:12;;;;;;;10.77;2.13;;;;;;;;;;4994941;28;20046;-62
2024/03/30 08:19:38;;;;;;;15.52;2.67;;;;;;;;;;5010372;28;20173;-61
2024/03/30 08:22:04;;;;;;;15.57;2.38;;;;;;;;;;4994891;28;20062;-61
2024/03/30 08:24:31;;;;;;;16.95;2.95;;;;;;;;;;5009914;28;20026;-61
2024/03/30 08:26:56;;;;;;;14.13;1.70;;;;;;;;;;4994769;28;20041;-61
2024/03/30 08:29:22;;;;;;;14.50;2.17;;;;;;;;;;4994974;28;20034;-61
2024/03/30 08:31:47;;;;;;;16.45;2.50;;;;;;;;;;5009797;28;20038;-62
2024/03/30 08:34:12;;;;;;;20.15;3.33;;;;;;;;;;5009690;28;20121;-61
2024/03/30 08:36:38;;;;;;;18.52;3.03;;;;;;;;;;5009657;28;20085;-62
2024/03/30 08:39:04;;;;;;;21.58;3.13;;;;;;;;;;4994544;28;20046;-62
2024/03/30 08:41:29;;;;;;;15.98;2.55;;;;;;;;;;4994528;28;20030;-62
2024/03/30 08:43:54;;;;;;;20.60;3.15;;;;;;;;;;5009863;28;20474;-62
2024/03/30 08:46:21;;;;;;;9.02;2.03;;;;;;;;;;5009580;28;20483;-62
2024/03/30 08:48:46;;;;;;;19.77;2.88;;;;;;;;;;4994534;28;20426;-62
2024/03/30 08:51:12;;;;;;;19.67;2.38;;;;;;;;;;5009653;28;20038;-62
2024/03/30 08:53:37;;;;;;;12.98;1.80;;;;;;;;;;4994380;28;20038;-62
2024/03/30 08:56:03;;;;;;;18.80;2.80;;;;;;;;;;4994426;28;20077;-62
2024/03/30 08:58:29;;;;;;;16.98;2.28;;;;;;;;;;5009337;28;20026;-62
2024/03/30 09:00:55;;;;;;;19.67;2.92;;;;;;;;;;5009268;28;20092;-62
2024/03/30 09:03:20;;;;;;;21.38;2.97;;;;;;;;;;4994203;28;20390;-62
2024/03/30 09:05:46;;;;;;;21.02;2.42;;;;;;;;;;4994182;28;20030;-62
2024/03/30 09:08:13;;;;;;;23.35;2.75;;;;;;;;;;4994248;28;20088;-62
2024/03/30 09:10:38;;;;;;;25.05;3.13;;;;;;;;;;4994261;28;20034;-62
2024/03/30 09:13:05;;;;;;;18.65;2.47;;;;;;;;;;5009365;28;20164;-62
2024/03/30 09:15:30;;;;;;;14.20;2.40;;;;;;;;;;4994178;28;20081;-62
2024/03/30 09:17:55;;;;;;;25.20;3.17;;;;;;;;;;4993985;28;20096;-62
2024/03/30 09:20:21;;;;;;;19.33;3.00;;;;;;;;;;5009398;28;20041;-62
2024/03/30 09:22:46;;;;;;;25.38;3.40;;;;;;;;;;4994062;28;20026;-61
2024/03/30 09:25:14;;;;;;;22.30;3.13;;;;;;;;;;5010652;28;20014;-61
2024/03/30 09:27:43;;;;;;;18.95;2.88;;;;;;;;;;4998155;28;20557;-62
2024/03/30 09:30:10;;;;;;;23.48;2.63;;;;;;;;;;4998002;28;20034;-62
2024/03/30 09:32:36;;;;;;;26.05;3.05;;;;;;;;;;5013537;28;20034;-62
2024/03/30 09:35:02;;;;;;;22.65;3.20;;;;;;;;;;4998062;28;20034;-62
2024/03/30 09:37:27;;;;;;;29.92;3.17;;;;;;;;;;4997947;28;20041;-64
2024/03/30 09:39:53;;;;;;;24.02;2.60;;;;;;;;;;5013058;28;20022;-64
2024/03/30 09:42:36;;;;;;;29.73;3.00;;;;;;;;;;4998128;28;20022;-68
2024/03/30 09:45:02;;;;;;;29.35;3.22;;;;;;;;;;4999609;28;20105;-64
2024/03/30 09:47:29;;;;;;;27.40;3.67;;;;;;;;;;4999910;28;20033;-64
2024/03/30 09:49:55;;;;;;;22.65;3.45;;;;;;;;;;4997978;28;20482;-64
2024/03/30 09:52:23;;;;;;;39.38;3.95;;;;;;;;;;4997603;28;20088;-64
2024/03/30 09:54:55;;;;;;;31.35;3.25;;;;;;;;;;4997622;28;20038;-64
2024/03/30 09:57:22;;;;;;;31.40;4.32;;;;;;;;;;4997371;28;20041;-64
2024/03/30 09:59:48;;;;;;;32.63;3.67;;;;;;;;;;4997388;28;20050;-64
2024/03/30 10:02:13;;;;;;;36.47;4.13;;;;;;;;;;4997501;28;20042;-64
2024/03/30 10:04:38;;;;;;;24.42;2.88;;;;;;;;;;4997541;28;20030;-64
2024/03/30 10:07:17;;;;;;;36.92;3.83;;;;;;;;;;5028854;28;20030;-64
2024/03/30 10:09:43;;;;;;;29.95;3.58;;;;;;;;;;4997383;28;20085;-64
2024/03/30 10:12:32;;;;;;;34.33;3.80;;;;;;;;;;4997396;28;20030;-64
2024/03/30 10:15:01;;;;;;;27.55;3.97;;;;;;;;;;4996864;28;20045;-64
2024/03/30 10:17:26;;;;;;;40.25;4.68;;;;;;;;;;4995797;28;20495;-64
2024/03/30 10:19:54;;;;;;;28.42;3.53;;;;;;;;;;4997177;28;20046;-64
2024/03/30 10:22:20;;;;;;;23.30;3.38;;;;;;;;;;4997351;28;20505;-64
2024/03/30 10:24:46;;;;;;;15.52;2.13;;;;;;;;;;4997349;28;20034;-64
2024/03/30 10:27:12;;;;;;;35.03;3.92;;;;;;;;;;4997017;28;20053;-64
2024/03/30 10:29:38;;;;;;;18.42;2.47;;;;;;;;;;4996962;28;20065;-64
2024/03/30 10:32:06;;;;;;;27.88;2.88;;;;;;;;;;4997031;28;20072;-64
2024/03/30 10:34:32;;;;;;;34.92;3.75;;;;;;;;;;4997015;28;20088;-64
2024/03/30 10:36:58;;;;;;;32.58;3.55;;;;;;;;;;4996252;28;20022;-64
2024/03/30 10:39:23;;;;;;;19.15;2.08;;;;;;;;;;4996739;28;20169;-64
2024/03/30 10:41:51;;;;;;;41.53;4.72;;;;;;;;;;4996736;28;20391;-64
2024/03/30 10:44:21;;;;;;;30.85;3.30;;;;;;;;;;5028189;28;20022;-64
2024/03/30 10:46:47;;;;;;;26.73;3.00;;;;;;;;;;4996674;28;20027;-64
2024/03/30 10:49:13;;;;;;;36.33;4.68;;;;;;;;;;4996626;28;20092;-64
2024/03/30 10:51:39;;;;;;;35.67;4.88;;;;;;;;;;4996499;28;20033;-64
2024/03/30 10:54:06;;;;;;;36.38;4.20;;;;;;;;;;5011553;28;20030;-64
2024/03/30 10:56:31;;;;;;;34.22;4.05;;;;;;;;;;5011523;28;20398;-64
2024/03/30 10:58:58;;;;;;;39.30;4.13;;;;;;;;;;4996329;28;20037;-64
2024/03/30 11:01:24;;;;;;;30.45;3.72;;;;;;;;;;4992089;28;20047;-64
2024/03/30 11:03:49;;;;;;;26.85;3.00;;;;;;;;;;4957563;29;20487;-64
2024/03/30 11:06:15;;;;;;;39.05;5.15;;;;;;;;;;4957509;29;20031;-64
2024/03/30 11:08:42;;;;;;;30.02;3.47;;;;;;;;;;4957555;28;20031;-64
2024/03/30 11:11:09;;;;;;;7.30;1.88;;;;;;;;;;4957505;28;20046;-64
2024/03/30 11:13:35;;;;;;;26.83;3.72;;;;;;;;;;4957405;28;20067;-64
2024/03/30 11:16:00;;;;;;;28.00;3.38;;;;;;;;;;4957307;29;20035;-64
2024/03/30 11:18:38;;;;;;;34.38;3.13;;;;;;;;;;4957237;28;20045;-64
2024/03/30 11:21:26;;;;;;;15.27;2.38;;;;;;;;;;4957365;28;20074;-64
2024/03/30 11:23:51;;;;;;;34.25;3.25;;;;;;;;;;4957299;28;20038;-64
2024/03/30 11:26:20;;;;;;;31.45;3.20;;;;;;;;;;4957198;29;20035;-64
2024/03/30 11:28:46;;;;;;;36.13;3.90;;;;;;;;;;4957118;28;20042;-64
2024/03/30 11:31:18;;;;;;;35.13;4.03;;;;;;;;;;4957144;28;20027;-64
2024/03/30 11:33:50;;;;;;;33.92;3.70;;;;;;;;;;4988438;28;20089;-64
2024/03/30 11:36:21;;;;;;;24.60;3.22;;;;;;;;;;4988007;28;20026;-64
2024/03/30 11:38:55;;;;;;;21.95;2.53;;;;;;;;;;4957062;29;20451;-64
2024/03/30 11:41:20;;;;;;;22.48;3.00;;;;;;;;;;4956989;28;20027;-64
2024/03/30 11:43:51;;;;;;;29.92;3.88;;;;;;;;;;4956984;28;20023;-64
2024/03/30 11:46:17;;;;;;;26.52;3.10;;;;;;;;;;4987964;28;20395;-64
2024/03/30 11:48:44;;;;;;;26.17;3.28;;;;;;;;;;4955868;28;20035;-64
2024/03/30 11:51:20;;;;;;;22.13;2.50;;;;;;;;;;4956836;28;20035;-64
2024/03/30 11:53:45;;;;;;;13.10;1.92;;;;;;;;;;4955552;29;20413;-64
2024/03/30 11:56:12;;;;;;;5.80;1.38;;;;;;;;;;4956612;28;20023;-64
2024/03/30 11:58:41;;;;;;;25.40;3.25;;;;;;;;;;4987610;28;20437;-64
2024/03/30 12:01:09;;;;;;;27.98;3.72;;;;;;;;;;4983212;28;20045;-64
2024/03/30 12:03:42;;;;;;;21.23;2.90;;;;;;;;;;4995233;28;20034;-64
2024/03/30 12:06:21;;;;;;;21.15;2.88;;;;;;;;;;4995271;28;20187;-64
2024/03/30 12:08:47;;;;;;;23.27;2.97;;;;;;;;;;4995158;28;20113;-64
2024/03/30 12:11:14;;;;;;;17.45;1.92;;;;;;;;;;4995076;28;20114;-64
2024/03/30 12:13:39;;;;;;;23.60;2.67;;;;;;;;;;5010061;28;20022;-64
2024/03/30 12:16:05;;;;;;;17.23;2.28;;;;;;;;;;4995131;28;20040;-64
2024/03/30 12:18:31;;;;;;;6.25;1.17;;;;;;;;;;5009938;28;20030;-64
2024/03/30 12:20:57;;;;;;;26.90;2.85;;;;;;;;;;4994841;28;20121;-64
2024/03/30 12:23:23;;;;;;;20.10;2.90;;;;;;;;;;5010052;28;20027;-64
2024/03/30 12:25:49;;;;;;;12.95;1.90;;;;;;;;;;4994802;28;20027;-64
2024/03/30 12:28:18;;;;;;;5.55;1.35;;;;;;;;;;5005086;23;20497;-61
2024/03/30 12:30:45;;;;;;;13.00;1.77;;;;;;;;;;5034307;28;20053;-64
2024/03/30 12:33:12;;;;;;;21.00;2.88;;;;;;;;;;5032022;28;20500;-64
2024/03/30 12:35:38;;;;;;;11.18;1.58;;;;;;;;;;5034427;28;20108;-64
2024/03/30 12:38:04;;;;;;;10.93;1.85;;;;;;;;;;5033135;28;20502;-64
2024/03/30 12:40:33;;;;;;;17.02;2.38;;;;;;;;;;5033100;28;20029;-64
2024/03/30 12:42:59;;;;;;;20.75;2.75;;;;;;;;;;5031928;28;20036;-64
2024/03/30 12:45:24;;;;;;;17.77;2.10;;;;;;;;;;5033046;28;20116;-64
2024/03/30 12:47:50;;;;;;;9.77;1.63;;;;;;;;;;5033042;28;20112;-64
2024/03/30 12:50:15;;;;;;;10.23;1.70;;;;;;;;;;5033299;28;20533;-64
2024/03/30 12:52:40;;;;;;;3.40;1.10;;;;;;;;;;5032895;28;20033;-64
2024/03/30 12:55:09;;;;;;;14.85;2.20;;;;;;;;;;5031733;28;20096;-64
2024/03/30 12:57:35;;;;;;;2.90;1.17;;;;;;;;;;5032828;28;20029;-64
2024/03/30 13:00:03;;;;;;;15.75;2.15;;;;;;;;;;5031452;28;20056;-64
2024/03/30 13:02:29;;;;;;;19.38;2.42;;;;;;;;;;5032784;28;20125;-64
2024/03/30 13:05:05;;;;;;;13.20;2.10;;;;;;;;;;5032774;28;20053;-64
2024/03/30 13:07:31;;;;;;;2.58;1.02;;;;;;;;;;5032787;28;20473;-64
2024/03/30 13:10:04;;;;;;;16.35;1.38;;;;;;;;;;5032682;28;20083;-64
2024/03/30 13:12:30;;;;;;;17.38;1.88;;;;;;;;;;5031726;28;20044;-64
2024/03/30 13:14:56;;;;;;;6.30;0.88;;;;;;;;;;5031578;28;20033;-64
2024/03/30 13:17:21;;;;;;;27.38;2.50;;;;;;;;;;5031316;28;20124;-64
2024/03/30 13:19:46;;;;;;;29.88;3.17;;;;;;;;;;5031356;28;20033;-64
2024/03/30 13:22:11;;;;;;;7.25;1.55;;;;;;;;;;5032555;28;20029;-64
2024/03/30 13:24:42;;;;;;;7.78;2.50;;;;;;;;;;5032508;28;20030;-64
2024/03/30 13:27:07;;;;;;;16.25;1.80;;;;;;;;;;5032466;28;20034;-64
2024/03/30 13:29:36;;;;;;;12.02;1.75;;;;;;;;;;4993214;28;1143582;-64
2024/03/30 13:32:01;;;;;;;2.75;0.93;;;;;;;;;;5032201;28;20104;-64
2024/03/30 13:34:26;;;;;;;5.50;1.00;;;;;;;;;;5033303;28;20499;-64
2024/03/30 13:36:52;;;;;;;3.55;0.88;;;;;;;;;;5015568;28;20021;-64
2024/03/30 13:39:17;;;;;;;21.05;2.10;;;;;;;;;;5031900;28;20128;-64
2024/03/30 13:41:42;;;;;;;19.10;2.15;;;;;;;;;;5033255;28;20061;-62
2024/03/30 13:44:08;;;;;;;2.70;0.82;;;;;;;;;;5032016;28;20097;-62
2024/03/30 13:46:33;;;;;;;5.10;1.52;;;;;;;;;;5033152;28;20454;-64
2024/03/30 13:49:03;;;;;;;15.45;2.03;;;;;;;;;;5033448;28;20055;-64
2024/03/30 13:51:28;;;;;;;13.50;2.20;;;;;;;;;;5033160;28;20029;-62
2024/03/30 13:53:54;;;;;;;26.25;2.85;;;;;;;;;;5030115;23;20053;-62
2024/03/30 13:56:19;;;;;;;5.25;1.33;;;;;;;;;;5013506;28;20021;-62
2024/03/30 13:58:44;;;;;;;1.13;0.50;;;;;;;;;;5012111;28;20520;-61
2024/03/30 14:01:10;;;;;;;6.78;1.40;;;;;;;;;;5012302;28;20076;-62
2024/03/30 14:03:35;;;;;;;18.50;4.13;;;;;;;;;;5012100;28;20473;-62
2024/03/30 14:06:02;;;;;;;6.20;1.55;;;;;;;;;;5012338;28;20026;-62
2024/03/30 14:08:27;;;;;;;16.65;4.15;;;;;;;;;;5013324;28;20026;-61
2024/03/30 14:10:52;;;;;;;30.38;4.97;;;;;;;;;;5013897;28;20528;-62
2024/03/30 14:13:18;;;;;;;17.83;3.13;;;;;;;;;;5015877;28;20029;-62
2024/03/30 14:15:43;;;;;;;28.60;4.22;;;;;;;;;;5017018;28;20014;-62
2024/03/30 14:18:09;;;;;;;20.02;2.90;;;;;;;;;;5016736;28;20084;-63
2024/03/30 14:20:34;;;;;;;26.55;3.00;;;;;;;;;;5015587;28;20532;-62
2024/03/30 14:22:59;;;;;;;26.02;3.03;;;;;;;;;;5016759;28;20116;-62
2024/03/30 14:25:27;;;;;;;20.42;3.15;;;;;;;;;;5016715;28;20026;-62
2024/03/30 14:27:53;;;;;;;28.83;3.50;;;;;;;;;;5016589;28;20105;-62
2024/03/30 14:30:18;;;;;;;22.83;3.55;;;;;;;;;;5016666;28;20596;-62
2024/03/30 14:32:44;;;;;;;26.95;2.80;;;;;;;;;;5016589;28;20030;-62
2024/03/30 14:35:09;;;;;;;13.57;2.80;;;;;;;;;;5016467;28;20492;-62
2024/03/30 14:37:35;;;;;;;26.50;3.00;;;;;;;;;;5016351;28;20041;-62